Odessa, FL (33556)

10:13 PM EST on January 25, 2015 (GMT -0500)
Lake Alice | Change Station
CLOSE
Current Station
Personal Weather Station
Location: Odessa, FL
Elevation: 46 ft
Nearby Weather Stations

Elev 46 ft 28.13 °N, 82.60 °W | Updated 8 minutes ago

Clear
Clear
54.5 °F
Feels Like 54.5 °F
N
2.2
Wind Variable Wind from South

Today
High -- | Low -- °F
--% Chance of Precip.
Yesterday
High -- | Low -- °F
Precip. -- in
7:20 AM 6:04 PM
Waxing Crescent, 38% visible
Pressure 29.98 in
Visibility 10.0 miles
Clouds Scattered Clouds 25000 ft
Dew Point 53 °F
Humidity 95%
Rainfall 0.00 in
Snow Depth Not available.
UV 0 out of 12
Pollen 8.70 out of 12
Air Quality Not available.
Flu Activity Not available.
METAR KTPA 260253Z 17007KT 10SM SCT250 14/11 A2998 RMK AO2 SLP151 T01440111 58015

More Conditions Fewer Conditions

Pressure 29.98 in
Visibility 10.0 miles
Clouds Scattered Clouds 25000 ft
Dew Point 53 °F
Humidity 95%
Rainfall 0.00 in
Snow Depth Not available.
UV 0 out of 12
Pollen 8.70 out of 12
Air Quality Not available.
Flu Activity Not available.
METAR KTPA 260253Z 17007KT 10SM SCT250 14/11 A2998 RMK AO2 SLP151 T01440111 58015

More Conditions Fewer Conditions

10-Day Weather Forecast

Almanac

Astronomy

Jan. 25, 2015 Rise Set
Actual Time
Civil Twilight
Nautical Twilight
Astronomical Twilight
Moon
Length of Visible Light
Length of Day
Tomorrow will be .
, % of the Moon is Illuminated

Today's Extremes

State Highs State Lows

Community

WunderPhotos

Upload Photos

1,790,087 photos uploaded!

WunderBlogs® & News

Nearby

Air Quality

  Air Quality AQ Index Pollutant
Not available.

Snow Depth

Station Depth Elevation

Earthquake Activity

City Distance Mag. Time & Date
Minimum magnitude displayed is 2.5.

Coastal Water Temperatures

Place Temperature

Nearby Weather Stations